sensor_id;sensor_type;location;lat;lon;timestamp;temperature;humidity
63802;DHT22;49949;43.060;25.624;2024-01-11T00:02:18;-9.20;99.90
63802;DHT22;49949;43.060;25.624;2024-01-11T00:04:44;-9.20;99.90
63802;DHT22;49949;43.060;25.624;2024-01-11T00:07:10;-9.20;99.90
63802;DHT22;49949;43.060;25.624;2024-01-11T00:09:42;-9.20;99.90
63802;DHT22;49949;43.060;25.624;2024-01-11T00:12:08;-9.30;99.90
63802;DHT22;49949;43.060;25.624;2024-01-11T00:14:35;-9.30;99.90
63802;DHT22;49949;43.060;25.624;2024-01-11T00:17:01;-9.20;99.90
63802;DHT22;49949;43.060;25.624;2024-01-11T00:19:27;-9.20;99.90
63802;DHT22;49949;43.060;25.624;2024-01-11T00:21:53;-9.20;99.90
63802;DHT22;49949;43.060;25.624;2024-01-11T00:24:18;-9.20;99.90
63802;DHT22;49949;43.060;25.624;2024-01-11T00:26:45;-9.20;99.90
63802;DHT22;49949;43.060;25.624;2024-01-11T00:29:10;-9.10;99.90
63802;DHT22;49949;43.060;25.624;2024-01-11T00:31:36;-9.10;99.90
63802;DHT22;49949;43.060;25.624;2024-01-11T00:34:03;-9.10;99.90
63802;DHT22;49949;43.060;25.624;2024-01-11T00:36:29;-9.00;99.90
63802;DHT22;49949;43.060;25.624;2024-01-11T00:38:55;-9.00;99.90
63802;DHT22;49949;43.060;25.624;2024-01-11T00:41:20;-8.90;99.90
63802;DHT22;49949;43.060;25.624;2024-01-11T00:43:46;-9.00;99.90
63802;DHT22;49949;43.060;25.624;2024-01-11T00:46:12;-8.90;99.90
63802;DHT22;49949;43.060;25.624;2024-01-11T00:48:37;-8.90;99.90
63802;DHT22;49949;43.060;25.624;2024-01-11T00:51:06;-9.00;99.90
63802;DHT22;49949;43.060;25.624;2024-01-11T00:53:32;-8.90;99.90
63802;DHT22;49949;43.060;25.624;2024-01-11T00:55:59;-8.90;99.90
63802;DHT22;49949;43.060;25.624;2024-01-11T00:58:25;-9.00;99.90
63802;DHT22;49949;43.060;25.624;2024-01-11T01:00:51;-8.90;99.90
63802;DHT22;49949;43.060;25.624;2024-01-11T01:03:18;-8.90;99.90
63802;DHT22;49949;43.060;25.624;2024-01-11T01:05:45;-8.90;99.90
63802;DHT22;49949;43.060;25.624;2024-01-11T01:08:11;-8.90;99.90
63802;DHT22;49949;43.060;25.624;2024-01-11T01:10:37;-8.90;99.90
63802;DHT22;49949;43.060;25.624;2024-01-11T01:13:03;-8.90;99.90
63802;DHT22;49949;43.060;25.624;2024-01-11T01:15:28;-8.90;99.90
63802;DHT22;49949;43.060;25.624;2024-01-11T01:17:54;-8.90;99.90
63802;DHT22;49949;43.060;25.624;2024-01-11T01:20:20;-8.90;99.90
63802;DHT22;49949;43.060;25.624;2024-01-11T01:22:45;-8.90;99.90
63802;DHT22;49949;43.060;25.624;2024-01-11T01:25:11;-8.90;99.90
63802;DHT22;49949;43.060;25.624;2024-01-11T01:27:37;-8.90;99.90
63802;DHT22;49949;43.060;25.624;2024-01-11T01:30:03;-8.80;99.90
63802;DHT22;49949;43.060;25.624;2024-01-11T01:32:29;-8.80;99.90
63802;DHT22;49949;43.060;25.624;2024-01-11T01:34:55;-8.80;99.90
63802;DHT22;49949;43.060;25.624;2024-01-11T01:37:21;-8.80;99.90
63802;DHT22;49949;43.060;25.624;2024-01-11T01:39:47;-8.80;99.90
63802;DHT22;49949;43.060;25.624;2024-01-11T01:42:13;-8.80;99.90
63802;DHT22;49949;43.060;25.624;2024-01-11T01:44:38;-8.80;99.90
63802;DHT22;49949;43.060;25.624;2024-01-11T01:47:07;-8.80;99.90
63802;DHT22;49949;43.060;25.624;2024-01-11T01:49:33;-8.80;99.90
63802;DHT22;49949;43.060;25.624;2024-01-11T01:51:59;-8.80;99.90
63802;DHT22;49949;43.060;25.624;2024-01-11T01:54:25;-8.80;99.90
63802;DHT22;49949;43.060;25.624;2024-01-11T01:56:52;-8.80;99.90
63802;DHT22;49949;43.060;25.624;2024-01-11T01:59:19;-8.60;99.90
63802;DHT22;49949;43.060;25.624;2024-01-11T02:01:45;-8.70;99.90
63802;DHT22;49949;43.060;25.624;2024-01-11T02:04:11;-8.70;99.90
63802;DHT22;49949;43.060;25.624;2024-01-11T02:06:37;-8.50;99.90
63802;DHT22;49949;43.060;25.624;2024-01-11T02:09:03;-8.50;99.90
63802;DHT22;49949;43.060;25.624;2024-01-11T02:11:30;-8.60;99.90
63802;DHT22;49949;43.060;25.624;2024-01-11T02:13:56;-8.70;99.90
63802;DHT22;49949;43.060;25.624;2024-01-11T02:16:23;-8.70;99.90
63802;DHT22;49949;43.060;25.624;2024-01-11T02:18:49;-8.70;99.90
63802;DHT22;49949;43.060;25.624;2024-01-11T02:21:15;-8.70;99.90
63802;DHT22;49949;43.060;25.624;2024-01-11T02:24:03;-8.70;99.90
63802;DHT22;49949;43.060;25.624;2024-01-11T02:26:29;-8.70;99.90
63802;DHT22;49949;43.060;25.624;2024-01-11T02:28:55;-8.80;99.90
63802;DHT22;49949;43.060;25.624;2024-01-11T02:31:20;-8.70;99.90
63802;DHT22;49949;43.060;25.624;2024-01-11T02:33:47;-8.80;99.90
63802;DHT22;49949;43.060;25.624;2024-01-11T02:36:13;-8.80;99.90
63802;DHT22;49949;43.060;25.624;2024-01-11T02:38:41;-8.80;99.90
63802;DHT22;49949;43.060;25.624;2024-01-11T02:41:07;-8.80;99.90
63802;DHT22;49949;43.060;25.624;2024-01-11T02:43:34;-8.70;99.90
63802;DHT22;49949;43.060;25.624;2024-01-11T02:46:02;-8.80;99.90
63802;DHT22;49949;43.060;25.624;2024-01-11T02:48:30;-8.90;99.90
63802;DHT22;49949;43.060;25.624;2024-01-11T02:50:57;-8.80;99.90
63802;DHT22;49949;43.060;25.624;2024-01-11T02:53:23;-8.80;99.90
63802;DHT22;49949;43.060;25.624;2024-01-11T02:55:52;-8.90;99.90
63802;DHT22;49949;43.060;25.624;2024-01-11T02:58:17;-8.90;99.90
63802;DHT22;49949;43.060;25.624;2024-01-11T03:00:43;-8.90;99.90
63802;DHT22;49949;43.060;25.624;2024-01-11T03:03:09;-9.00;99.90
63802;DHT22;49949;43.060;25.624;2024-01-11T03:05:34;-9.00;99.90
63802;DHT22;49949;43.060;25.624;2024-01-11T03:08:00;-9.00;99.90
63802;DHT22;49949;43.060;25.624;2024-01-11T03:10:25;-9.10;99.90
63802;DHT22;49949;43.060;25.624;2024-01-11T03:12:51;-9.00;99.90
63802;DHT22;49949;43.060;25.624;2024-01-11T03:15:17;-9.00;99.90
63802;DHT22;49949;43.060;25.624;2024-01-11T03:17:42;-9.00;99.90
63802;DHT22;49949;43.060;25.624;2024-01-11T03:20:08;-9.10;99.90
63802;DHT22;49949;43.060;25.624;2024-01-11T03:22:34;-9.00;99.90
63802;DHT22;49949;43.060;25.624;2024-01-11T03:25:00;-9.00;99.90
63802;DHT22;49949;43.060;25.624;2024-01-11T03:27:26;-9.00;99.90
63802;DHT22;49949;43.060;25.624;2024-01-11T03:29:51;-9.00;99.90
63802;DHT22;49949;43.060;25.624;2024-01-11T03:32:17;-9.10;99.90
63802;DHT22;49949;43.060;25.624;2024-01-11T03:34:42;-9.10;99.90
63802;DHT22;49949;43.060;25.624;2024-01-11T03:37:08;-9.10;99.90
63802;DHT22;49949;43.060;25.624;2024-01-11T03:39:34;-9.10;99.90
63802;DHT22;49949;43.060;25.624;2024-01-11T03:42:00;-9.20;99.90
63802;DHT22;49949;43.060;25.624;2024-01-11T03:44:28;-9.20;99.90
63802;DHT22;49949;43.060;25.624;2024-01-11T03:46:54;-9.20;99.90
63802;DHT22;49949;43.060;25.624;2024-01-11T03:49:19;-9.20;99.90
63802;DHT22;49949;43.060;25.624;2024-01-11T03:51:45;-9.20;99.90
63802;DHT22;49949;43.060;25.624;2024-01-11T03:54:11;-9.30;99.90
63802;DHT22;49949;43.060;25.624;2024-01-11T03:56:39;-9.30;99.90
63802;DHT22;49949;43.060;25.624;2024-01-11T03:59:05;-9.30;99.90
63802;DHT22;49949;43.060;25.624;2024-01-11T04:01:32;-9.30;99.90
63802;DHT22;49949;43.060;25.624;2024-01-11T04:03:58;-9.20;99.90
63802;DHT22;49949;43.060;25.624;2024-01-11T04:06:23;-9.20;99.90
63802;DHT22;49949;43.060;25.624;2024-01-11T04:08:50;-9.30;99.90
63802;DHT22;49949;43.060;25.624;2024-01-11T04:11:17;-9.30;99.90
63802;DHT22;49949;43.060;25.624;2024-01-11T04:13:43;-9.20;99.90
63802;DHT22;49949;43.060;25.624;2024-01-11T04:16:09;-9.30;99.90
63802;DHT22;49949;43.060;25.624;2024-01-11T04:18:34;-9.30;99.90
63802;DHT22;49949;43.060;25.624;2024-01-11T04:21:00;-9.30;99.90
63802;DHT22;49949;43.060;25.624;2024-01-11T04:23:26;-9.30;99.90
63802;DHT22;49949;43.060;25.624;2024-01-11T04:25:51;-9.30;99.90
63802;DHT22;49949;43.060;25.624;2024-01-11T04:28:18;-9.30;99.90
63802;DHT22;49949;43.060;25.624;2024-01-11T04:30:44;-9.30;99.90
63802;DHT22;49949;43.060;25.624;2024-01-11T04:33:10;-9.30;99.90
63802;DHT22;49949;43.060;25.624;2024-01-11T04:35:36;-9.30;99.90
63802;DHT22;49949;43.060;25.624;2024-01-11T04:38:02;-9.30;99.90
63802;DHT22;49949;43.060;25.624;2024-01-11T04:40:28;-9.30;99.90
63802;DHT22;49949;43.060;25.624;2024-01-11T04:42:54;-9.40;99.90
63802;DHT22;49949;43.060;25.624;2024-01-11T04:45:19;-9.30;99.90
63802;DHT22;49949;43.060;25.624;2024-01-11T04:47:45;-9.30;99.90
63802;DHT22;49949;43.060;25.624;2024-01-11T04:50:11;-9.30;99.90
63802;DHT22;49949;43.060;25.624;2024-01-11T04:52:37;-9.30;99.90
63802;DHT22;49949;43.060;25.624;2024-01-11T04:55:02;-9.30;99.90
63802;DHT22;49949;43.060;25.624;2024-01-11T04:57:28;-9.30;99.90
63802;DHT22;49949;43.060;25.624;2024-01-11T04:59:54;-9.30;99.90
63802;DHT22;49949;43.060;25.624;2024-01-11T05:02:23;-9.20;99.90
63802;DHT22;49949;43.060;25.624;2024-01-11T05:04:48;-9.30;99.90
63802;DHT22;49949;43.060;25.624;2024-01-11T05:07:14;-9.30;99.90
63802;DHT22;49949;43.060;25.624;2024-01-11T05:09:40;-9.30;99.90
63802;DHT22;49949;43.060;25.624;2024-01-11T05:12:06;-9.20;99.90
63802;DHT22;49949;43.060;25.624;2024-01-11T05:14:31;-9.20;99.90
63802;DHT22;49949;43.060;25.624;2024-01-11T05:16:57;-9.20;99.90
63802;DHT22;49949;43.060;25.624;2024-01-11T05:19:23;-9.30;99.90
63802;DHT22;49949;43.060;25.624;2024-01-11T05:21:49;-9.30;99.90
63802;DHT22;49949;43.060;25.624;2024-01-11T05:24:15;-9.30;99.90
63802;DHT22;49949;43.060;25.624;2024-01-11T05:26:40;-9.30;99.90
63802;DHT22;49949;43.060;25.624;2024-01-11T05:29:06;-9.30;99.90
63802;DHT22;49949;43.060;25.624;2024-01-11T05:31:32;-9.30;99.90
63802;DHT22;49949;43.060;25.624;2024-01-11T05:33:58;-9.30;99.90
63802;DHT22;49949;43.060;25.624;2024-01-11T05:36:23;-9.30;99.90
63802;DHT22;49949;43.060;25.624;2024-01-11T05:38:49;-9.30;99.90
63802;DHT22;49949;43.060;25.624;2024-01-11T05:41:15;-9.30;99.90
63802;DHT22;49949;43.060;25.624;2024-01-11T05:43:40;-9.30;99.90
63802;DHT22;49949;43.060;25.624;2024-01-11T05:46:07;-9.30;99.90
63802;DHT22;49949;43.060;25.624;2024-01-11T05:48:33;-9.30;99.90
63802;DHT22;49949;43.060;25.624;2024-01-11T05:50:59;-9.30;99.90
63802;DHT22;49949;43.060;25.624;2024-01-11T05:53:25;-9.30;99.90
63802;DHT22;49949;43.060;25.624;2024-01-11T05:55:53;-9.30;99.90
63802;DHT22;49949;43.060;25.624;2024-01-11T05:58:18;-9.30;99.90
63802;DHT22;49949;43.060;25.624;2024-01-11T06:00:45;-9.40;99.90
63802;DHT22;49949;43.060;25.624;2024-01-11T06:03:14;-9.40;99.90
63802;DHT22;49949;43.060;25.624;2024-01-11T06:05:40;-9.40;99.90
63802;DHT22;49949;43.060;25.624;2024-01-11T06:08:06;-9.40;99.90
63802;DHT22;49949;43.060;25.624;2024-01-11T06:10:32;-9.40;99.90
63802;DHT22;49949;43.060;25.624;2024-01-11T06:12:58;-9.30;99.90
63802;DHT22;49949;43.060;25.624;2024-01-11T06:15:24;-9.40;99.90
63802;DHT22;49949;43.060;25.624;2024-01-11T06:17:49;-9.30;99.90
63802;DHT22;49949;43.060;25.624;2024-01-11T06:20:15;-9.30;99.90
63802;DHT22;49949;43.060;25.624;2024-01-11T06:22:41;-9.20;99.90
63802;DHT22;49949;43.060;25.624;2024-01-11T06:25:07;-9.20;99.90
63802;DHT22;49949;43.060;25.624;2024-01-11T06:27:33;-9.30;99.90
63802;DHT22;49949;43.060;25.624;2024-01-11T06:29:58;-9.30;99.90
63802;DHT22;49949;43.060;25.624;2024-01-11T06:32:24;-9.20;99.90
63802;DHT22;49949;43.060;25.624;2024-01-11T06:34:50;-9.20;99.90
63802;DHT22;49949;43.060;25.624;2024-01-11T06:37:16;-9.20;99.90
63802;DHT22;49949;43.060;25.624;2024-01-11T06:39:42;-9.20;99.90
63802;DHT22;49949;43.060;25.624;2024-01-11T06:42:08;-9.20;99.90
63802;DHT22;49949;43.060;25.624;2024-01-11T06:44:34;-9.20;99.90
63802;DHT22;49949;43.060;25.624;2024-01-11T06:46:59;-9.20;99.90
63802;DHT22;49949;43.060;25.624;2024-01-11T06:49:27;-9.10;99.90
63802;DHT22;49949;43.060;25.624;2024-01-11T06:51:52;-9.10;99.90
63802;DHT22;49949;43.060;25.624;2024-01-11T06:54:18;-9.00;99.90
63802;DHT22;49949;43.060;25.624;2024-01-11T06:56:44;-9.00;99.90
63802;DHT22;49949;43.060;25.624;2024-01-11T06:59:10;-8.90;99.90
63802;DHT22;49949;43.060;25.624;2024-01-11T07:01:35;-8.90;99.90
63802;DHT22;49949;43.060;25.624;2024-01-11T07:04:01;-8.80;99.90
63802;DHT22;49949;43.060;25.624;2024-01-11T07:06:27;-8.70;99.90
63802;DHT22;49949;43.060;25.624;2024-01-11T07:08:53;-8.70;99.90
63802;DHT22;49949;43.060;25.624;2024-01-11T07:11:18;-8.70;99.90
63802;DHT22;49949;43.060;25.624;2024-01-11T07:13:44;-8.60;99.90
63802;DHT22;49949;43.060;25.624;2024-01-11T07:16:10;-8.60;99.90
63802;DHT22;49949;43.060;25.624;2024-01-11T07:18:36;-8.50;99.90
63802;DHT22;49949;43.060;25.624;2024-01-11T07:21:02;-8.40;99.90
63802;DHT22;49949;43.060;25.624;2024-01-11T07:23:27;-8.40;99.90
63802;DHT22;49949;43.060;25.624;2024-01-11T07:25:53;-8.40;99.90
63802;DHT22;49949;43.060;25.624;2024-01-11T07:28:19;-8.30;99.90
63802;DHT22;49949;43.060;25.624;2024-01-11T07:30:50;-8.20;99.90
63802;DHT22;49949;43.060;25.624;2024-01-11T07:33:16;-8.20;99.90
63802;DHT22;49949;43.060;25.624;2024-01-11T07:35:42;-8.20;99.90
63802;DHT22;49949;43.060;25.624;2024-01-11T07:38:07;-8.20;99.90
63802;DHT22;49949;43.060;25.624;2024-01-11T07:40:33;-8.10;99.90
63802;DHT22;49949;43.060;25.624;2024-01-11T07:42:59;-8.00;99.90
63802;DHT22;49949;43.060;25.624;2024-01-11T07:45:25;-7.90;99.90
63802;DHT22;49949;43.060;25.624;2024-01-11T07:47:50;-7.70;99.90
63802;DHT22;49949;43.060;25.624;2024-01-11T07:50:16;-7.70;99.90
63802;DHT22;49949;43.060;25.624;2024-01-11T07:52:42;-7.60;99.90
63802;DHT22;49949;43.060;25.624;2024-01-11T07:55:08;-7.70;99.90
63802;DHT22;49949;43.060;25.624;2024-01-11T07:57:35;-7.50;99.90
63802;DHT22;49949;43.060;25.624;2024-01-11T08:00:01;-7.40;99.90
63802;DHT22;49949;43.060;25.624;2024-01-11T08:02:29;-7.20;99.90
63802;DHT22;49949;43.060;25.624;2024-01-11T08:04:55;-7.10;99.90
63802;DHT22;49949;43.060;25.624;2024-01-11T08:07:20;-7.10;99.90
63802;DHT22;49949;43.060;25.624;2024-01-11T08:09:47;-7.00;99.90
63802;DHT22;49949;43.060;25.624;2024-01-11T08:12:16;-7.00;99.90
63802;DHT22;49949;43.060;25.624;2024-01-11T08:14:42;-6.80;99.90
63802;DHT22;49949;43.060;25.624;2024-01-11T08:17:08;-6.60;99.90
63802;DHT22;49949;43.060;25.624;2024-01-11T08:19:34;-6.50;99.90
63802;DHT22;49949;43.060;25.624;2024-01-11T08:22:00;-6.40;99.90
63802;DHT22;49949;43.060;25.624;2024-01-11T08:24:26;-6.30;99.90
63802;DHT22;49949;43.060;25.624;2024-01-11T08:26:52;-6.20;99.90
63802;DHT22;49949;43.060;25.624;2024-01-11T08:29:18;-6.00;99.90
63802;DHT22;49949;43.060;25.624;2024-01-11T08:31:47;-5.80;99.90
63802;DHT22;49949;43.060;25.624;2024-01-11T08:34:13;-5.70;99.90
63802;DHT22;49949;43.060;25.624;2024-01-11T08:36:39;-5.70;99.90
63802;DHT22;49949;43.060;25.624;2024-01-11T08:39:05;-5.50;99.90
63802;DHT22;49949;43.060;25.624;2024-01-11T08:41:31;-5.40;99.90
63802;DHT22;49949;43.060;25.624;2024-01-11T08:43:58;-5.20;99.90
63802;DHT22;49949;43.060;25.624;2024-01-11T08:46:25;-5.00;99.90
63802;DHT22;49949;43.060;25.624;2024-01-11T08:48:51;-4.80;99.90
63802;DHT22;49949;43.060;25.624;2024-01-11T08:51:17;-4.60;99.90
63802;DHT22;49949;43.060;25.624;2024-01-11T08:53:43;-4.60;99.90
63802;DHT22;49949;43.060;25.624;2024-01-11T08:56:08;-4.40;99.90
63802;DHT22;49949;43.060;25.624;2024-01-11T08:58:34;-4.20;99.90
63802;DHT22;49949;43.060;25.624;2024-01-11T09:00:59;-4.00;99.90
63802;DHT22;49949;43.060;25.624;2024-01-11T09:03:25;-3.90;99.90
63802;DHT22;49949;43.060;25.624;2024-01-11T09:05:51;-3.80;99.90
63802;DHT22;49949;43.060;25.624;2024-01-11T09:08:16;-3.70;99.90
63802;DHT22;49949;43.060;25.624;2024-01-11T09:10:42;-3.40;99.90
63802;DHT22;49949;43.060;25.624;2024-01-11T09:13:08;-3.40;99.90
63802;DHT22;49949;43.060;25.624;2024-01-11T09:15:34;-3.30;99.90
63802;DHT22;49949;43.060;25.624;2024-01-11T09:18:00;-3.10;99.90
63802;DHT22;49949;43.060;25.624;2024-01-11T09:20:25;-2.90;99.90
63802;DHT22;49949;43.060;25.624;2024-01-11T09:22:51;-2.80;99.90
63802;DHT22;49949;43.060;25.624;2024-01-11T09:25:17;-2.40;99.90
63802;DHT22;49949;43.060;25.624;2024-01-11T09:27:42;-2.10;99.90
63802;DHT22;49949;43.060;25.624;2024-01-11T09:30:08;-1.70;99.90
63802;DHT22;49949;43.060;25.624;2024-01-11T09:32:34;-1.40;99.90
63802;DHT22;49949;43.060;25.624;2024-01-11T09:35:01;-1.00;99.90
63802;DHT22;49949;43.060;25.624;2024-01-11T09:37:27;-0.60;99.90
63802;DHT22;49949;43.060;25.624;2024-01-11T09:39:52;0.00;99.90
63802;DHT22;49949;43.060;25.624;2024-01-11T09:42:18;0.80;99.90
63802;DHT22;49949;43.060;25.624;2024-01-11T09:44:44;1.70;99.90
63802;DHT22;49949;43.060;25.624;2024-01-11T09:47:10;2.30;99.90
63802;DHT22;49949;43.060;25.624;2024-01-11T09:49:38;2.40;99.90
63802;DHT22;49949;43.060;25.624;2024-01-11T09:52:05;2.30;99.90
63802;DHT22;49949;43.060;25.624;2024-01-11T09:54:30;2.10;99.90
63802;DHT22;49949;43.060;25.624;2024-01-11T09:56:58;1.80;99.90
63802;DHT22;49949;43.060;25.624;2024-01-11T09:59:25;1.60;99.90
63802;DHT22;49949;43.060;25.624;2024-01-11T10:01:51;1.30;99.90
63802;DHT22;49949;43.060;25.624;2024-01-11T10:04:17;1.00;99.90
63802;DHT22;49949;43.060;25.624;2024-01-11T10:06:43;0.70;99.90
63802;DHT22;49949;43.060;25.624;2024-01-11T10:09:09;0.60;99.90
63802;DHT22;49949;43.060;25.624;2024-01-11T10:11:36;0.50;99.90
63802;DHT22;49949;43.060;25.624;2024-01-11T10:14:01;0.40;99.90
63802;DHT22;49949;43.060;25.624;2024-01-11T10:16:28;0.30;99.90
63802;DHT22;49949;43.060;25.624;2024-01-11T10:18:55;0.10;99.90
63802;DHT22;49949;43.060;25.624;2024-01-11T10:21:21;0.00;99.90
63802;DHT22;49949;43.060;25.624;2024-01-11T10:23:48;-0.10;99.90
63802;DHT22;49949;43.060;25.624;2024-01-11T10:26:18;0.00;99.90
63802;DHT22;49949;43.060;25.624;2024-01-11T10:28:47;0.00;99.90
63802;DHT22;49949;43.060;25.624;2024-01-11T10:31:13;0.00;99.90
63802;DHT22;49949;43.060;25.624;2024-01-11T10:33:43;-0.10;99.90
63802;DHT22;49949;43.060;25.624;2024-01-11T10:36:11;-0.10;99.90
63802;DHT22;49949;43.060;25.624;2024-01-11T10:38:39;0.00;99.90
63802;DHT22;49949;43.060;25.624;2024-01-11T10:41:05;0.00;99.90
63802;DHT22;49949;43.060;25.624;2024-01-11T10:43:32;0.10;99.90
63802;DHT22;49949;43.060;25.624;2024-01-11T10:46:02;0.10;99.90
63802;DHT22;49949;43.060;25.624;2024-01-11T10:48:31;0.10;99.90
63802;DHT22;49949;43.060;25.624;2024-01-11T10:51:05;0.10;99.90
63802;DHT22;49949;43.060;25.624;2024-01-11T10:53:52;0.10;99.90
63802;DHT22;49949;43.060;25.624;2024-01-11T10:56:19;0.10;99.90
63802;DHT22;49949;43.060;25.624;2024-01-11T10:58:45;0.20;99.90
63802;DHT22;49949;43.060;25.624;2024-01-11T11:01:13;0.20;99.90
63802;DHT22;49949;43.060;25.624;2024-01-11T11:03:39;0.30;99.90
63802;DHT22;49949;43.060;25.624;2024-01-11T11:06:09;0.30;99.90
63802;DHT22;49949;43.060;25.624;2024-01-11T11:08:36;0.30;99.90
63802;DHT22;49949;43.060;25.624;2024-01-11T11:11:03;0.30;99.90
63802;DHT22;49949;43.060;25.624;2024-01-11T11:13:32;0.40;99.90
63802;DHT22;49949;43.060;25.624;2024-01-11T11:15:57;0.40;99.90
63802;DHT22;49949;43.060;25.624;2024-01-11T11:18:24;0.50;99.90
63802;DHT22;49949;43.060;25.624;2024-01-11T11:20:51;0.40;99.90
63802;DHT22;49949;43.060;25.624;2024-01-11T11:23:18;0.60;99.90
63802;DHT22;49949;43.060;25.624;2024-01-11T11:25:48;0.50;99.90
63802;DHT22;49949;43.060;25.624;2024-01-11T11:28:15;0.50;99.90
63802;DHT22;49949;43.060;25.624;2024-01-11T11:30:43;0.60;99.90
63802;DHT22;49949;43.060;25.624;2024-01-11T11:33:24;0.60;99.90
63802;DHT22;49949;43.060;25.624;2024-01-11T11:35:56;0.80;99.90
63802;DHT22;49949;43.060;25.624;2024-01-11T11:38:27;0.80;99.90
63802;DHT22;49949;43.060;25.624;2024-01-11T11:41:00;0.80;99.90
63802;DHT22;49949;43.060;25.624;2024-01-11T11:43:27;0.80;99.90
63802;DHT22;49949;43.060;25.624;2024-01-11T11:45:54;0.80;99.90
63802;DHT22;49949;43.060;25.624;2024-01-11T11:51:17;0.90;99.90
63802;DHT22;49949;43.060;25.624;2024-01-11T11:53:43;0.90;99.90
63802;DHT22;49949;43.060;25.624;2024-01-11T11:56:10;0.90;99.90
63802;DHT22;49949;43.060;25.624;2024-01-11T11:58:36;0.90;99.90
63802;DHT22;49949;43.060;25.624;2024-01-11T12:01:03;0.90;99.90
63802;DHT22;49949;43.060;25.624;2024-01-11T12:03:31;0.90;99.90
63802;DHT22;49949;43.060;25.624;2024-01-11T12:05:58;1.00;99.90
63802;DHT22;49949;43.060;25.624;2024-01-11T12:08:24;1.00;99.90
63802;DHT22;49949;43.060;25.624;2024-01-11T12:10:51;1.00;99.90
63802;DHT22;49949;43.060;25.624;2024-01-11T12:13:17;1.00;99.90
63802;DHT22;49949;43.060;25.624;2024-01-11T12:15:43;1.00;99.90
63802;DHT22;49949;43.060;25.624;2024-01-11T12:18:08;1.00;99.90
63802;DHT22;49949;43.060;25.624;2024-01-11T12:20:34;0.90;99.90
63802;DHT22;49949;43.060;25.624;2024-01-11T12:23:00;1.00;99.90
63802;DHT22;49949;43.060;25.624;2024-01-11T12:25:28;1.00;99.90
63802;DHT22;49949;43.060;25.624;2024-01-11T12:27:54;1.00;99.90
63802;DHT22;49949;43.060;25.624;2024-01-11T12:30:22;1.00;99.90
63802;DHT22;49949;43.060;25.624;2024-01-11T12:32:49;1.10;99.90
63802;DHT22;49949;43.060;25.624;2024-01-11T12:35:16;1.10;99.90
63802;DHT22;49949;43.060;25.624;2024-01-11T12:38:07;1.10;99.90
63802;DHT22;49949;43.060;25.624;2024-01-11T12:40:33;1.00;99.90
63802;DHT22;49949;43.060;25.624;2024-01-11T12:43:06;1.00;99.90
63802;DHT22;49949;43.060;25.624;2024-01-11T12:45:33;1.10;99.90
63802;DHT22;49949;43.060;25.624;2024-01-11T12:48:00;1.10;99.90
63802;DHT22;49949;43.060;25.624;2024-01-11T12:50:27;1.10;99.90
63802;DHT22;49949;43.060;25.624;2024-01-11T12:53:09;1.10;99.90
63802;DHT22;49949;43.060;25.624;2024-01-11T12:55:35;1.00;99.90
63802;DHT22;49949;43.060;25.624;2024-01-11T12:58:08;1.00;99.90
63802;DHT22;49949;43.060;25.624;2024-01-11T13:00:37;1.00;99.90
63802;DHT22;49949;43.060;25.624;2024-01-11T13:03:07;1.00;99.90
63802;DHT22;49949;43.060;25.624;2024-01-11T13:05:35;1.00;99.90
63802;DHT22;49949;43.060;25.624;2024-01-11T13:08:10;1.10;99.90
63802;DHT22;49949;43.060;25.624;2024-01-11T13:10:37;1.00;99.90
63802;DHT22;49949;43.060;25.624;2024-01-11T13:13:04;1.00;99.90
63802;DHT22;49949;43.060;25.624;2024-01-11T13:15:30;1.00;99.90
63802;DHT22;49949;43.060;25.624;2024-01-11T13:17:59;0.90;99.90
63802;DHT22;49949;43.060;25.624;2024-01-11T13:20:25;0.90;99.90
63802;DHT22;49949;43.060;25.624;2024-01-11T13:23:15;0.90;99.90
63802;DHT22;49949;43.060;25.624;2024-01-11T13:25:41;0.90;99.90
63802;DHT22;49949;43.060;25.624;2024-01-11T13:28:08;0.90;99.90
63802;DHT22;49949;43.060;25.624;2024-01-11T13:30:33;0.80;99.90
63802;DHT22;49949;43.060;25.624;2024-01-11T13:32:59;0.70;99.90
63802;DHT22;49949;43.060;25.624;2024-01-11T13:35:25;0.70;99.90
63802;DHT22;49949;43.060;25.624;2024-01-11T13:37:51;0.80;99.90
63802;DHT22;49949;43.060;25.624;2024-01-11T13:40:16;0.70;99.90
63802;DHT22;49949;43.060;25.624;2024-01-11T13:42:42;0.50;99.90
63802;DHT22;49949;43.060;25.624;2024-01-11T13:45:09;0.40;99.90
63802;DHT22;49949;43.060;25.624;2024-01-11T13:47:35;0.30;99.90
63802;DHT22;49949;43.060;25.624;2024-01-11T13:50:01;0.20;99.90
63802;DHT22;49949;43.060;25.624;2024-01-11T13:52:26;0.00;99.90
63802;DHT22;49949;43.060;25.624;2024-01-11T13:54:52;-0.10;99.90
63802;DHT22;49949;43.060;25.624;2024-01-11T13:57:18;-0.10;99.90
63802;DHT22;49949;43.060;25.624;2024-01-11T13:59:44;-0.10;99.90
63802;DHT22;49949;43.060;25.624;2024-01-11T14:02:09;-0.20;99.90
63802;DHT22;49949;43.060;25.624;2024-01-11T14:04:35;-0.40;99.90
63802;DHT22;49949;43.060;25.624;2024-01-11T14:07:01;-0.60;99.90
63802;DHT22;49949;43.060;25.624;2024-01-11T14:09:29;-0.60;99.90
63802;DHT22;49949;43.060;25.624;2024-01-11T14:11:54;-0.70;99.90
63802;DHT22;49949;43.060;25.624;2024-01-11T14:14:20;-0.80;99.90
63802;DHT22;49949;43.060;25.624;2024-01-11T14:16:46;-0.80;99.90
63802;DHT22;49949;43.060;25.624;2024-01-11T14:19:12;-0.90;99.90
63802;DHT22;49949;43.060;25.624;2024-01-11T14:21:38;-1.00;99.90
63802;DHT22;49949;43.060;25.624;2024-01-11T14:24:04;-1.10;99.90
63802;DHT22;49949;43.060;25.624;2024-01-11T14:26:31;-1.10;99.90
63802;DHT22;49949;43.060;25.624;2024-01-11T14:28:58;-1.10;99.90
63802;DHT22;49949;43.060;25.624;2024-01-11T14:31:24;-1.20;99.90
63802;DHT22;49949;43.060;25.624;2024-01-11T14:33:50;-1.20;99.90
63802;DHT22;49949;43.060;25.624;2024-01-11T14:36:16;-1.20;99.90
63802;DHT22;49949;43.060;25.624;2024-01-11T14:38:42;-1.20;99.90
63802;DHT22;49949;43.060;25.624;2024-01-11T14:41:08;-1.30;99.90
63802;DHT22;49949;43.060;25.624;2024-01-11T14:43:35;-1.30;99.90
63802;DHT22;49949;43.060;25.624;2024-01-11T14:46:01;-1.30;99.90
63802;DHT22;49949;43.060;25.624;2024-01-11T14:48:26;-1.50;99.90
63802;DHT22;49949;43.060;25.624;2024-01-11T14:50:56;-1.60;99.90
63802;DHT22;49949;43.060;25.624;2024-01-11T14:53:22;-1.70;99.90
63802;DHT22;49949;43.060;25.624;2024-01-11T14:55:48;-1.70;99.90
63802;DHT22;49949;43.060;25.624;2024-01-11T14:58:14;-1.70;99.90
63802;DHT22;49949;43.060;25.624;2024-01-11T15:00:41;-1.90;99.90
63802;DHT22;49949;43.060;25.624;2024-01-11T15:03:06;-2.00;99.90
63802;DHT22;49949;43.060;25.624;2024-01-11T15:05:32;-2.10;99.90
63802;DHT22;49949;43.060;25.624;2024-01-11T15:07:58;-2.20;99.90
63802;DHT22;49949;43.060;25.624;2024-01-11T15:10:25;-2.30;99.90
63802;DHT22;49949;43.060;25.624;2024-01-11T15:12:51;-2.30;99.90
63802;DHT22;49949;43.060;25.624;2024-01-11T15:15:16;-2.40;99.90
63802;DHT22;49949;43.060;25.624;2024-01-11T15:17:43;-2.50;99.90
63802;DHT22;49949;43.060;25.624;2024-01-11T15:20:09;-2.50;99.90